Olstykke, Denmark
Current Conditions -  °F | °C
As of 8:20 PM on Thursday 18 Dec 2014 (Local Time) from EKRK Reporting Station
Rain Showers Rain Showers  
Wind Chill: 42°   Ceiling: 900
Heat Index: 48°   Visibility: 2.1mi
Dew Point: 48°   Wind: 17mph
Humidity: 100%   Direction: 230°SW
Pressure: 29.38"   Gusts: NA
Location:  55.8°N, 12.16°E
Report Text: EKRK 181920Z AUTO 23015KT 3500NDV -SHRA BR FEW004///SCT007/// BKN009/// OVC011/// 09/09 Q0995
Loading
Personal Weather Stations






























Interactive Weather Map New forecast layout! Learn more

10-Day Weather Forecast

Advertisements
Track Severe Weather on mobile